sensor_id;sensor_type;location;lat;lon;timestamp;P1;durP1;ratioP1;P2;durP2;ratioP2
62861;SDS011;48953;53.110;5.592;2023-06-26T00:01:17;14.27;;;12.00;;
62861;SDS011;48953;53.110;5.592;2023-06-26T00:03:47;14.80;;;13.00;;
62861;SDS011;48953;53.110;5.592;2023-06-26T00:06:13;15.57;;;13.20;;
62861;SDS011;48953;53.110;5.592;2023-06-26T00:08:39;14.38;;;12.88;;
62861;SDS011;48953;53.110;5.592;2023-06-26T00:11:06;15.70;;;13.27;;
62861;SDS011;48953;53.110;5.592;2023-06-26T00:13:33;15.07;;;13.50;;
62861;SDS011;48953;53.110;5.592;2023-06-26T00:15:59;15.30;;;13.70;;
62861;SDS011;48953;53.110;5.592;2023-06-26T00:18:28;16.33;;;13.27;;
62861;SDS011;48953;53.110;5.592;2023-06-26T00:20:54;15.65;;;13.88;;
62861;SDS011;48953;53.110;5.592;2023-06-26T00:23:20;14.88;;;13.35;;
62861;SDS011;48953;53.110;5.592;2023-06-26T00:25:46;14.63;;;13.13;;
62861;SDS011;48953;53.110;5.592;2023-06-26T00:28:12;13.82;;;12.38;;
62861;SDS011;48953;53.110;5.592;2023-06-26T00:30:38;13.77;;;12.48;;
62861;SDS011;48953;53.110;5.592;2023-06-26T00:33:04;12.65;;;11.35;;
62861;SDS011;48953;53.110;5.592;2023-06-26T00:35:30;14.80;;;12.43;;
62861;SDS011;48953;53.110;5.592;2023-06-26T00:37:56;15.02;;;12.90;;
62861;SDS011;48953;53.110;5.592;2023-06-26T00:40:23;13.52;;;11.73;;
62861;SDS011;48953;53.110;5.592;2023-06-26T00:42:49;13.70;;;12.20;;
62861;SDS011;48953;53.110;5.592;2023-06-26T00:45:15;14.55;;;12.90;;
62861;SDS011;48953;53.110;5.592;2023-06-26T00:47:41;13.45;;;12.05;;
62861;SDS011;48953;53.110;5.592;2023-06-26T00:50:07;13.50;;;11.77;;
62861;SDS011;48953;53.110;5.592;2023-06-26T00:52:34;14.00;;;12.57;;
62861;SDS011;48953;53.110;5.592;2023-06-26T00:55:00;13.40;;;12.02;;
62861;SDS011;48953;53.110;5.592;2023-06-26T00:57:26;14.23;;;12.65;;
62861;SDS011;48953;53.110;5.592;2023-06-26T00:59:52;14.32;;;12.93;;
62861;SDS011;48953;53.110;5.592;2023-06-26T01:02:18;16.23;;;13.55;;
62861;SDS011;48953;53.110;5.592;2023-06-26T01:04:48;16.33;;;13.30;;
62861;SDS011;48953;53.110;5.592;2023-06-26T01:07:15;15.18;;;13.68;;
62861;SDS011;48953;53.110;5.592;2023-06-26T01:09:44;14.73;;;13.32;;
62861;SDS011;48953;53.110;5.592;2023-06-26T01:12:10;14.90;;;13.35;;
62861;SDS011;48953;53.110;5.592;2023-06-26T01:14:36;14.70;;;13.27;;
62861;SDS011;48953;53.110;5.592;2023-06-26T01:17:02;16.05;;;14.07;;
62861;SDS011;48953;53.110;5.592;2023-06-26T01:19:30;15.93;;;14.23;;
62861;SDS011;48953;53.110;5.592;2023-06-26T01:22:14;15.80;;;13.88;;
62861;SDS011;48953;53.110;5.592;2023-06-26T01:24:42;15.73;;;14.02;;
62861;SDS011;48953;53.110;5.592;2023-06-26T01:27:10;15.82;;;14.20;;
62861;SDS011;48953;53.110;5.592;2023-06-26T01:29:37;17.17;;;14.85;;
62861;SDS011;48953;53.110;5.592;2023-06-26T01:32:03;17.25;;;14.80;;
62861;SDS011;48953;53.110;5.592;2023-06-26T01:34:30;16.00;;;14.25;;
62861;SDS011;48953;53.110;5.592;2023-06-26T01:36:56;16.13;;;14.43;;
62861;SDS011;48953;53.110;5.592;2023-06-26T01:39:22;17.13;;;15.38;;
62861;SDS011;48953;53.110;5.592;2023-06-26T01:41:48;15.98;;;14.25;;
62861;SDS011;48953;53.110;5.592;2023-06-26T01:44:26;16.27;;;14.27;;
62861;SDS011;48953;53.110;5.592;2023-06-26T01:47:00;17.25;;;15.45;;
62861;SDS011;48953;53.110;5.592;2023-06-26T01:49:46;16.42;;;14.70;;
62861;SDS011;48953;53.110;5.592;2023-06-26T01:54:54;17.15;;;14.68;;
62861;SDS011;48953;53.110;5.592;2023-06-26T01:57:21;16.65;;;14.50;;
62861;SDS011;48953;53.110;5.592;2023-06-26T01:59:48;19.02;;;14.10;;
62861;SDS011;48953;53.110;5.592;2023-06-26T02:02:14;15.82;;;14.13;;
62861;SDS011;48953;53.110;5.592;2023-06-26T02:04:40;15.60;;;14.00;;
62861;SDS011;48953;53.110;5.592;2023-06-26T02:07:06;14.52;;;12.88;;
62861;SDS011;48953;53.110;5.592;2023-06-26T02:09:34;12.38;;;11.02;;
62861;SDS011;48953;53.110;5.592;2023-06-26T02:12:01;14.13;;;9.10;;
62861;SDS011;48953;53.110;5.592;2023-06-26T02:14:27;11.18;;;8.25;;
62861;SDS011;48953;53.110;5.592;2023-06-26T02:16:53;11.07;;;7.35;;
62861;SDS011;48953;53.110;5.592;2023-06-26T02:19:19;9.70;;;7.32;;
62861;SDS011;48953;53.110;5.592;2023-06-26T02:21:49;11.30;;;7.28;;
62861;SDS011;48953;53.110;5.592;2023-06-26T02:24:15;12.35;;;7.80;;
62861;SDS011;48953;53.110;5.592;2023-06-26T02:26:41;12.52;;;8.18;;
62861;SDS011;48953;53.110;5.592;2023-06-26T02:29:07;13.13;;;9.13;;
62861;SDS011;48953;53.110;5.592;2023-06-26T02:31:33;11.38;;;9.13;;
62861;SDS011;48953;53.110;5.592;2023-06-26T02:34:00;11.57;;;9.18;;
62861;SDS011;48953;53.110;5.592;2023-06-26T02:36:26;15.57;;;9.30;;
62861;SDS011;48953;53.110;5.592;2023-06-26T02:38:51;14.02;;;10.10;;
62861;SDS011;48953;53.110;5.592;2023-06-26T02:41:17;14.38;;;9.95;;
62861;SDS011;48953;53.110;5.592;2023-06-26T02:43:43;14.02;;;10.52;;
62861;SDS011;48953;53.110;5.592;2023-06-26T02:46:10;14.75;;;9.93;;
62861;SDS011;48953;53.110;5.592;2023-06-26T02:48:36;14.35;;;9.85;;
62861;SDS011;48953;53.110;5.592;2023-06-26T02:51:02;15.57;;;10.23;;
62861;SDS011;48953;53.110;5.592;2023-06-26T02:53:28;17.08;;;11.57;;
62861;SDS011;48953;53.110;5.592;2023-06-26T02:55:54;18.85;;;10.82;;
62861;SDS011;48953;53.110;5.592;2023-06-26T02:58:20;15.75;;;10.65;;
62861;SDS011;48953;53.110;5.592;2023-06-26T03:00:46;19.58;;;10.60;;
62861;SDS011;48953;53.110;5.592;2023-06-26T03:03:12;18.67;;;11.80;;
62861;SDS011;48953;53.110;5.592;2023-06-26T03:05:38;16.05;;;11.35;;
62861;SDS011;48953;53.110;5.592;2023-06-26T03:08:04;15.70;;;11.23;;
62861;SDS011;48953;53.110;5.592;2023-06-26T03:10:30;14.45;;;10.88;;
62861;SDS011;48953;53.110;5.592;2023-06-26T03:12:56;18.58;;;11.40;;
62861;SDS011;48953;53.110;5.592;2023-06-26T03:15:22;15.60;;;11.65;;
62861;SDS011;48953;53.110;5.592;2023-06-26T03:17:48;17.15;;;10.85;;
62861;SDS011;48953;53.110;5.592;2023-06-26T03:20:14;18.55;;;11.65;;
62861;SDS011;48953;53.110;5.592;2023-06-26T03:22:40;17.45;;;11.13;;
62861;SDS011;48953;53.110;5.592;2023-06-26T03:25:06;17.92;;;11.00;;
62861;SDS011;48953;53.110;5.592;2023-06-26T03:27:32;16.90;;;9.43;;
62861;SDS011;48953;53.110;5.592;2023-06-26T03:29:59;17.45;;;10.68;;
62861;SDS011;48953;53.110;5.592;2023-06-26T03:32:25;18.20;;;10.75;;
62861;SDS011;48953;53.110;5.592;2023-06-26T03:34:51;17.08;;;10.82;;
62861;SDS011;48953;53.110;5.592;2023-06-26T03:37:18;17.23;;;11.00;;
62861;SDS011;48953;53.110;5.592;2023-06-26T03:39:44;17.05;;;9.77;;
62861;SDS011;48953;53.110;5.592;2023-06-26T03:42:10;15.50;;;9.15;;
62861;SDS011;48953;53.110;5.592;2023-06-26T03:44:36;16.35;;;9.82;;
62861;SDS011;48953;53.110;5.592;2023-06-26T03:47:02;13.75;;;9.45;;
62861;SDS011;48953;53.110;5.592;2023-06-26T03:49:28;15.10;;;9.55;;
62861;SDS011;48953;53.110;5.592;2023-06-26T03:51:54;18.52;;;9.95;;
62861;SDS011;48953;53.110;5.592;2023-06-26T03:54:20;13.00;;;9.88;;
62861;SDS011;48953;53.110;5.592;2023-06-26T03:56:46;16.00;;;9.82;;
62861;SDS011;48953;53.110;5.592;2023-06-26T03:59:12;13.95;;;8.48;;
62861;SDS011;48953;53.110;5.592;2023-06-26T04:01:38;10.13;;;6.75;;
62861;SDS011;48953;53.110;5.592;2023-06-26T04:04:04;10.15;;;6.80;;
62861;SDS011;48953;53.110;5.592;2023-06-26T04:06:30;10.23;;;5.88;;
62861;SDS011;48953;53.110;5.592;2023-06-26T04:08:59;9.00;;;5.85;;
62861;SDS011;48953;53.110;5.592;2023-06-26T04:11:25;13.02;;;6.07;;
62861;SDS011;48953;53.110;5.592;2023-06-26T04:13:51;10.93;;;5.28;;
62861;SDS011;48953;53.110;5.592;2023-06-26T04:16:17;10.73;;;5.38;;
62861;SDS011;48953;53.110;5.592;2023-06-26T04:18:43;9.40;;;4.28;;
62861;SDS011;48953;53.110;5.592;2023-06-26T04:21:10;10.45;;;4.05;;
62861;SDS011;48953;53.110;5.592;2023-06-26T04:23:37;5.82;;;3.70;;
62861;SDS011;48953;53.110;5.592;2023-06-26T04:26:04;12.50;;;3.60;;
62861;SDS011;48953;53.110;5.592;2023-06-26T04:28:33;9.18;;;4.25;;
62861;SDS011;48953;53.110;5.592;2023-06-26T04:30:59;10.02;;;3.97;;
62861;SDS011;48953;53.110;5.592;2023-06-26T04:33:25;11.15;;;3.22;;
62861;SDS011;48953;53.110;5.592;2023-06-26T04:35:52;10.88;;;2.80;;
62861;SDS011;48953;53.110;5.592;2023-06-26T04:38:19;7.22;;;3.28;;
62861;SDS011;48953;53.110;5.592;2023-06-26T04:40:46;7.72;;;3.33;;
62861;SDS011;48953;53.110;5.592;2023-06-26T04:43:12;7.63;;;3.33;;
62861;SDS011;48953;53.110;5.592;2023-06-26T04:45:38;9.68;;;2.92;;
62861;SDS011;48953;53.110;5.592;2023-06-26T04:48:04;5.18;;;2.80;;
62861;SDS011;48953;53.110;5.592;2023-06-26T04:50:31;12.00;;;2.90;;
62861;SDS011;48953;53.110;5.592;2023-06-26T04:52:58;7.75;;;2.47;;
62861;SDS011;48953;53.110;5.592;2023-06-26T04:55:24;8.55;;;2.50;;
62861;SDS011;48953;53.110;5.592;2023-06-26T04:57:51;8.60;;;2.63;;
62861;SDS011;48953;53.110;5.592;2023-06-26T05:00:17;4.18;;;1.60;;
62861;SDS011;48953;53.110;5.592;2023-06-26T05:02:43;5.25;;;2.05;;
62861;SDS011;48953;53.110;5.592;2023-06-26T05:05:10;6.03;;;2.00;;
62861;SDS011;48953;53.110;5.592;2023-06-26T05:07:36;6.40;;;2.22;;
62861;SDS011;48953;53.110;5.592;2023-06-26T05:10:02;9.88;;;2.40;;
62861;SDS011;48953;53.110;5.592;2023-06-26T05:12:28;6.18;;;2.20;;
62861;SDS011;48953;53.110;5.592;2023-06-26T05:14:54;4.68;;;2.03;;
62861;SDS011;48953;53.110;5.592;2023-06-26T05:17:20;4.78;;;1.80;;
62861;SDS011;48953;53.110;5.592;2023-06-26T05:19:46;5.63;;;2.03;;
62861;SDS011;48953;53.110;5.592;2023-06-26T05:22:12;7.72;;;2.30;;
62861;SDS011;48953;53.110;5.592;2023-06-26T05:24:39;4.15;;;1.80;;
62861;SDS011;48953;53.110;5.592;2023-06-26T05:27:05;4.60;;;1.90;;
62861;SDS011;48953;53.110;5.592;2023-06-26T05:29:32;7.63;;;1.98;;
62861;SDS011;48953;53.110;5.592;2023-06-26T05:31:58;3.85;;;1.95;;
62861;SDS011;48953;53.110;5.592;2023-06-26T05:34:25;5.30;;;1.92;;
62861;SDS011;48953;53.110;5.592;2023-06-26T05:36:54;5.65;;;1.88;;
62861;SDS011;48953;53.110;5.592;2023-06-26T05:39:21;4.72;;;1.90;;
62861;SDS011;48953;53.110;5.592;2023-06-26T05:41:47;4.63;;;1.80;;
62861;SDS011;48953;53.110;5.592;2023-06-26T05:44:14;3.58;;;1.75;;
62861;SDS011;48953;53.110;5.592;2023-06-26T05:46:40;3.42;;;1.52;;
62861;SDS011;48953;53.110;5.592;2023-06-26T05:49:06;6.97;;;1.58;;
62861;SDS011;48953;53.110;5.592;2023-06-26T05:51:32;3.67;;;1.55;;
62861;SDS011;48953;53.110;5.592;2023-06-26T05:53:58;3.30;;;1.52;;
62861;SDS011;48953;53.110;5.592;2023-06-26T05:56:24;6.28;;;1.90;;
62861;SDS011;48953;53.110;5.592;2023-06-26T05:58:51;2.95;;;1.63;;
62861;SDS011;48953;53.110;5.592;2023-06-26T06:01:17;4.57;;;1.80;;
62861;SDS011;48953;53.110;5.592;2023-06-26T06:03:44;4.68;;;1.90;;
62861;SDS011;48953;53.110;5.592;2023-06-26T06:06:11;6.38;;;2.22;;
62861;SDS011;48953;53.110;5.592;2023-06-26T06:08:37;2.25;;;1.50;;
62861;SDS011;48953;53.110;5.592;2023-06-26T06:11:03;3.20;;;1.38;;
62861;SDS011;48953;53.110;5.592;2023-06-26T06:13:29;4.40;;;1.60;;
62861;SDS011;48953;53.110;5.592;2023-06-26T06:15:55;4.43;;;1.73;;
62861;SDS011;48953;53.110;5.592;2023-06-26T06:18:21;4.22;;;1.48;;
62861;SDS011;48953;53.110;5.592;2023-06-26T06:20:47;4.40;;;1.58;;
62861;SDS011;48953;53.110;5.592;2023-06-26T06:23:13;3.45;;;1.00;;
62861;SDS011;48953;53.110;5.592;2023-06-26T06:25:40;1.63;;;1.20;;
62861;SDS011;48953;53.110;5.592;2023-06-26T06:28:07;2.90;;;1.35;;
62861;SDS011;48953;53.110;5.592;2023-06-26T06:30:33;2.92;;;1.23;;
62861;SDS011;48953;53.110;5.592;2023-06-26T06:32:59;3.88;;;1.50;;
62861;SDS011;48953;53.110;5.592;2023-06-26T06:35:25;2.33;;;1.40;;
62861;SDS011;48953;53.110;5.592;2023-06-26T06:37:51;3.10;;;1.70;;
62861;SDS011;48953;53.110;5.592;2023-06-26T06:40:17;4.32;;;1.90;;
62861;SDS011;48953;53.110;5.592;2023-06-26T06:42:43;3.75;;;1.77;;
62861;SDS011;48953;53.110;5.592;2023-06-26T06:45:09;3.13;;;1.60;;
62861;SDS011;48953;53.110;5.592;2023-06-26T06:47:35;3.25;;;1.92;;
62861;SDS011;48953;53.110;5.592;2023-06-26T06:50:02;3.75;;;1.80;;
62861;SDS011;48953;53.110;5.592;2023-06-26T06:52:39;4.35;;;1.65;;
62861;SDS011;48953;53.110;5.592;2023-06-26T06:55:06;2.78;;;1.85;;
62861;SDS011;48953;53.110;5.592;2023-06-26T06:57:34;5.57;;;1.67;;
62861;SDS011;48953;53.110;5.592;2023-06-26T07:00:05;2.33;;;1.75;;
62861;SDS011;48953;53.110;5.592;2023-06-26T07:02:34;3.95;;;1.85;;
62861;SDS011;48953;53.110;5.592;2023-06-26T07:05:01;3.75;;;1.90;;
62861;SDS011;48953;53.110;5.592;2023-06-26T07:07:28;5.18;;;1.85;;
62861;SDS011;48953;53.110;5.592;2023-06-26T07:09:56;5.55;;;2.20;;
62861;SDS011;48953;53.110;5.592;2023-06-26T07:12:23;5.45;;;2.17;;
62861;SDS011;48953;53.110;5.592;2023-06-26T07:14:49;3.15;;;1.55;;
62861;SDS011;48953;53.110;5.592;2023-06-26T07:17:15;4.22;;;1.98;;
62861;SDS011;48953;53.110;5.592;2023-06-26T07:19:41;3.17;;;1.80;;
62861;SDS011;48953;53.110;5.592;2023-06-26T07:22:07;3.97;;;1.73;;
62861;SDS011;48953;53.110;5.592;2023-06-26T07:24:33;4.97;;;2.10;;
62861;SDS011;48953;53.110;5.592;2023-06-26T07:26:59;5.93;;;2.08;;
62861;SDS011;48953;53.110;5.592;2023-06-26T07:29:26;7.03;;;2.35;;
62861;SDS011;48953;53.110;5.592;2023-06-26T07:31:52;2.70;;;1.92;;
62861;SDS011;48953;53.110;5.592;2023-06-26T07:34:18;5.30;;;2.25;;
62861;SDS011;48953;53.110;5.592;2023-06-26T07:36:44;6.43;;;2.13;;
62861;SDS011;48953;53.110;5.592;2023-06-26T07:39:10;4.28;;;2.10;;
62861;SDS011;48953;53.110;5.592;2023-06-26T07:41:36;4.75;;;1.90;;
62861;SDS011;48953;53.110;5.592;2023-06-26T07:44:02;4.68;;;2.33;;
62861;SDS011;48953;53.110;5.592;2023-06-26T07:46:28;5.80;;;2.45;;
62861;SDS011;48953;53.110;5.592;2023-06-26T07:48:54;4.90;;;1.90;;
62861;SDS011;48953;53.110;5.592;2023-06-26T07:51:21;4.32;;;2.17;;
62861;SDS011;48953;53.110;5.592;2023-06-26T07:53:47;4.05;;;2.00;;
62861;SDS011;48953;53.110;5.592;2023-06-26T07:56:13;6.70;;;2.30;;
62861;SDS011;48953;53.110;5.592;2023-06-26T07:58:39;5.35;;;1.92;;
62861;SDS011;48953;53.110;5.592;2023-06-26T08:01:05;3.30;;;2.00;;
62861;SDS011;48953;53.110;5.592;2023-06-26T08:03:31;7.30;;;2.88;;
62861;SDS011;48953;53.110;5.592;2023-06-26T08:05:57;4.63;;;2.10;;
62861;SDS011;48953;53.110;5.592;2023-06-26T08:08:23;8.93;;;2.63;;
62861;SDS011;48953;53.110;5.592;2023-06-26T08:10:49;5.03;;;2.70;;
62861;SDS011;48953;53.110;5.592;2023-06-26T08:13:15;5.20;;;2.28;;
62861;SDS011;48953;53.110;5.592;2023-06-26T08:15:41;5.78;;;2.60;;
62861;SDS011;48953;53.110;5.592;2023-06-26T08:18:07;7.22;;;2.90;;
62861;SDS011;48953;53.110;5.592;2023-06-26T08:20:33;6.35;;;2.90;;
62861;SDS011;48953;53.110;5.592;2023-06-26T08:23:01;7.17;;;3.20;;
62861;SDS011;48953;53.110;5.592;2023-06-26T08:25:28;6.43;;;3.22;;
62861;SDS011;48953;53.110;5.592;2023-06-26T08:27:54;5.43;;;2.92;;
62861;SDS011;48953;53.110;5.592;2023-06-26T08:30:20;5.82;;;2.90;;
62861;SDS011;48953;53.110;5.592;2023-06-26T08:32:46;5.97;;;3.17;;
62861;SDS011;48953;53.110;5.592;2023-06-26T08:35:13;5.00;;;3.40;;
62861;SDS011;48953;53.110;5.592;2023-06-26T08:37:39;4.53;;;2.70;;
62861;SDS011;48953;53.110;5.592;2023-06-26T08:40:05;5.15;;;2.75;;
62861;SDS011;48953;53.110;5.592;2023-06-26T08:42:32;7.65;;;3.05;;
62861;SDS011;48953;53.110;5.592;2023-06-26T08:44:59;5.05;;;3.60;;
62861;SDS011;48953;53.110;5.592;2023-06-26T08:47:25;5.75;;;3.00;;
62861;SDS011;48953;53.110;5.592;2023-06-26T08:50:04;5.30;;;3.10;;
62861;SDS011;48953;53.110;5.592;2023-06-26T08:52:33;8.30;;;3.28;;
62861;SDS011;48953;53.110;5.592;2023-06-26T08:55:02;5.03;;;2.67;;
62861;SDS011;48953;53.110;5.592;2023-06-26T08:57:28;3.92;;;3.30;;
62861;SDS011;48953;53.110;5.592;2023-06-26T08:59:56;5.18;;;2.90;;
62861;SDS011;48953;53.110;5.592;2023-06-26T09:02:22;5.10;;;3.08;;
62861;SDS011;48953;53.110;5.592;2023-06-26T09:04:48;3.20;;;2.90;;
62861;SDS011;48953;53.110;5.592;2023-06-26T09:07:15;5.50;;;3.10;;
62861;SDS011;48953;53.110;5.592;2023-06-26T09:09:41;4.95;;;2.53;;
62861;SDS011;48953;53.110;5.592;2023-06-26T09:12:08;4.65;;;2.83;;
62861;SDS011;48953;53.110;5.592;2023-06-26T09:14:35;4.07;;;2.40;;
62861;SDS011;48953;53.110;5.592;2023-06-26T09:17:02;5.78;;;2.45;;
62861;SDS011;48953;53.110;5.592;2023-06-26T09:19:28;5.10;;;2.97;;
62861;SDS011;48953;53.110;5.592;2023-06-26T09:21:54;7.65;;;2.10;;
62861;SDS011;48953;53.110;5.592;2023-06-26T09:24:21;6.15;;;1.98;;
62861;SDS011;48953;53.110;5.592;2023-06-26T09:26:48;7.28;;;2.00;;
62861;SDS011;48953;53.110;5.592;2023-06-26T09:29:14;4.18;;;1.80;;
62861;SDS011;48953;53.110;5.592;2023-06-26T09:31:41;5.10;;;1.75;;
62861;SDS011;48953;53.110;5.592;2023-06-26T09:34:08;7.13;;;1.42;;
62861;SDS011;48953;53.110;5.592;2023-06-26T09:36:34;6.00;;;1.70;;
62861;SDS011;48953;53.110;5.592;2023-06-26T09:39:04;5.22;;;2.05;;
62861;SDS011;48953;53.110;5.592;2023-06-26T09:41:33;6.63;;;1.80;;
62861;SDS011;48953;53.110;5.592;2023-06-26T09:44:01;7.07;;;2.10;;
62861;SDS011;48953;53.110;5.592;2023-06-26T09:46:30;5.22;;;1.70;;
62861;SDS011;48953;53.110;5.592;2023-06-26T09:49:09;5.03;;;1.95;;
62861;SDS011;48953;53.110;5.592;2023-06-26T09:51:36;6.68;;;1.67;;
62861;SDS011;48953;53.110;5.592;2023-06-26T09:54:03;4.45;;;1.60;;
62861;SDS011;48953;53.110;5.592;2023-06-26T09:56:29;4.85;;;1.70;;
62861;SDS011;48953;53.110;5.592;2023-06-26T09:58:56;6.75;;;1.80;;
62861;SDS011;48953;53.110;5.592;2023-06-26T10:01:23;6.25;;;1.75;;
62861;SDS011;48953;53.110;5.592;2023-06-26T10:03:49;4.05;;;1.17;;
62861;SDS011;48953;53.110;5.592;2023-06-26T10:06:17;3.45;;;1.40;;
62861;SDS011;48953;53.110;5.592;2023-06-26T10:08:44;7.05;;;1.48;;
62861;SDS011;48953;53.110;5.592;2023-06-26T10:11:11;2.65;;;1.20;;
62861;SDS011;48953;53.110;5.592;2023-06-26T10:13:40;6.25;;;1.60;;
62861;SDS011;48953;53.110;5.592;2023-06-26T10:16:11;6.85;;;1.67;;
62861;SDS011;48953;53.110;5.592;2023-06-26T10:18:38;7.88;;;1.85;;
62861;SDS011;48953;53.110;5.592;2023-06-26T10:21:04;6.55;;;1.70;;
62861;SDS011;48953;53.110;5.592;2023-06-26T10:23:31;5.53;;;1.08;;
62861;SDS011;48953;53.110;5.592;2023-06-26T10:25:58;3.28;;;1.30;;
62861;SDS011;48953;53.110;5.592;2023-06-26T10:28:24;4.55;;;1.83;;
62861;SDS011;48953;53.110;5.592;2023-06-26T10:30:51;3.47;;;1.13;;
62861;SDS011;48953;53.110;5.592;2023-06-26T10:33:19;4.22;;;1.25;;
62861;SDS011;48953;53.110;5.592;2023-06-26T10:35:45;3.22;;;1.30;;
62861;SDS011;48953;53.110;5.592;2023-06-26T10:38:18;2.90;;;1.30;;
62861;SDS011;48953;53.110;5.592;2023-06-26T10:40:47;4.00;;;1.38;;
62861;SDS011;48953;53.110;5.592;2023-06-26T10:43:15;3.90;;;1.23;;
62861;SDS011;48953;53.110;5.592;2023-06-26T10:45:47;7.00;;;1.40;;
62861;SDS011;48953;53.110;5.592;2023-06-26T10:48:19;3.67;;;1.30;;
62861;SDS011;48953;53.110;5.592;2023-06-26T10:50:49;4.40;;;1.42;;
62861;SDS011;48953;53.110;5.592;2023-06-26T10:55:55;5.65;;;1.60;;
62861;SDS011;48953;53.110;5.592;2023-06-26T10:58:32;4.30;;;1.30;;
62861;SDS011;48953;53.110;5.592;2023-06-26T11:03:39;8.70;;;1.83;;
62861;SDS011;48953;53.110;5.592;2023-06-26T11:06:12;7.35;;;1.80;;
62861;SDS011;48953;53.110;5.592;2023-06-26T11:08:44;6.35;;;1.52;;
62861;SDS011;48953;53.110;5.592;2023-06-26T11:11:12;5.95;;;1.80;;
62861;SDS011;48953;53.110;5.592;2023-06-26T11:13:39;8.73;;;2.13;;
62861;SDS011;48953;53.110;5.592;2023-06-26T11:16:05;3.85;;;1.38;;
62861;SDS011;48953;53.110;5.592;2023-06-26T11:18:31;4.43;;;1.70;;
62861;SDS011;48953;53.110;5.592;2023-06-26T11:21:07;4.22;;;1.48;;
62861;SDS011;48953;53.110;5.592;2023-06-26T11:23:33;5.70;;;1.55;;
62861;SDS011;48953;53.110;5.592;2023-06-26T11:26:19;5.20;;;1.67;;
62861;SDS011;48953;53.110;5.592;2023-06-26T11:28:50;5.70;;;1.80;;
62861;SDS011;48953;53.110;5.592;2023-06-26T11:31:26;6.03;;;1.75;;
62861;SDS011;48953;53.110;5.592;2023-06-26T11:33:52;5.85;;;1.65;;
62861;SDS011;48953;53.110;5.592;2023-06-26T11:36:19;5.07;;;1.63;;
62861;SDS011;48953;53.110;5.592;2023-06-26T11:38:45;6.07;;;1.67;;
62861;SDS011;48953;53.110;5.592;2023-06-26T11:41:16;7.18;;;1.80;;
62861;SDS011;48953;53.110;5.592;2023-06-26T11:43:42;5.57;;;1.60;;
62861;SDS011;48953;53.110;5.592;2023-06-26T11:46:08;7.78;;;2.00;;
62861;SDS011;48953;53.110;5.592;2023-06-26T11:48:34;3.95;;;1.55;;
62861;SDS011;48953;53.110;5.592;2023-06-26T11:51:00;3.83;;;1.30;;
62861;SDS011;48953;53.110;5.592;2023-06-26T11:53:26;5.00;;;1.60;;
62861;SDS011;48953;53.110;5.592;2023-06-26T11:55:53;5.18;;;1.40;;
62861;SDS011;48953;53.110;5.592;2023-06-26T11:58:19;6.55;;;1.60;;
62861;SDS011;48953;53.110;5.592;2023-06-26T12:00:47;7.82;;;2.00;;
62861;SDS011;48953;53.110;5.592;2023-06-26T12:03:13;7.00;;;1.83;;
62861;SDS011;48953;53.110;5.592;2023-06-26T12:05:39;8.05;;;1.80;;
62861;SDS011;48953;53.110;5.592;2023-06-26T12:08:06;9.23;;;2.15;;
62861;SDS011;48953;53.110;5.592;2023-06-26T12:10:32;5.95;;;2.40;;
62861;SDS011;48953;53.110;5.592;2023-06-26T12:12:59;5.00;;;1.38;;
62861;SDS011;48953;53.110;5.592;2023-06-26T12:15:26;6.05;;;1.45;;
62861;SDS011;48953;53.110;5.592;2023-06-26T12:17:53;6.90;;;1.85;;
62861;SDS011;48953;53.110;5.592;2023-06-26T12:20:23;5.90;;;1.90;;
62861;SDS011;48953;53.110;5.592;2023-06-26T12:22:50;5.95;;;1.73;;
62861;SDS011;48953;53.110;5.592;2023-06-26T12:25:23;5.15;;;1.55;;
62861;SDS011;48953;53.110;5.592;2023-06-26T12:27:49;6.47;;;1.70;;
62861;SDS011;48953;53.110;5.592;2023-06-26T12:30:15;3.40;;;1.27;;
62861;SDS011;48953;53.110;5.592;2023-06-26T12:32:45;5.22;;;2.05;;
62861;SDS011;48953;53.110;5.592;2023-06-26T12:35:14;3.65;;;1.38;;
62861;SDS011;48953;53.110;5.592;2023-06-26T12:37:41;7.47;;;1.58;;
62861;SDS011;48953;53.110;5.592;2023-06-26T12:40:19;6.10;;;1.50;;
62861;SDS011;48953;53.110;5.592;2023-06-26T12:42:49;5.85;;;1.50;;
62861;SDS011;48953;53.110;5.592;2023-06-26T12:45:15;5.80;;;2.00;;
62861;SDS011;48953;53.110;5.592;2023-06-26T12:47:41;9.82;;;2.08;;
62861;SDS011;48953;53.110;5.592;2023-06-26T12:50:07;7.55;;;1.95;;
62861;SDS011;48953;53.110;5.592;2023-06-26T12:52:33;5.60;;;1.58;;
62861;SDS011;48953;53.110;5.592;2023-06-26T12:54:59;4.28;;;1.30;;
62861;SDS011;48953;53.110;5.592;2023-06-26T12:57:25;7.05;;;1.50;;
62861;SDS011;48953;53.110;5.592;2023-06-26T12:59:51;7.45;;;1.80;;
62861;SDS011;48953;53.110;5.592;2023-06-26T13:02:17;12.18;;;2.05;;
62861;SDS011;48953;53.110;5.592;2023-06-26T13:04:43;5.47;;;1.88;;
62861;SDS011;48953;53.110;5.592;2023-06-26T13:07:10;4.90;;;1.60;;
62861;SDS011;48953;53.110;5.592;2023-06-26T13:09:36;5.00;;;1.45;;
62861;SDS011;48953;53.110;5.592;2023-06-26T13:12:03;5.05;;;1.45;;
62861;SDS011;48953;53.110;5.592;2023-06-26T13:14:30;3.92;;;1.58;;
62861;SDS011;48953;53.110;5.592;2023-06-26T13:16:56;5.03;;;1.10;;
62861;SDS011;48953;53.110;5.592;2023-06-26T13:19:22;5.63;;;1.65;;
62861;SDS011;48953;53.110;5.592;2023-06-26T13:21:48;6.47;;;1.40;;
62861;SDS011;48953;53.110;5.592;2023-06-26T13:24:14;2.88;;;1.15;;
62861;SDS011;48953;53.110;5.592;2023-06-26T13:26:41;4.03;;;1.27;;
62861;SDS011;48953;53.110;5.592;2023-06-26T13:29:07;4.72;;;1.50;;
62861;SDS011;48953;53.110;5.592;2023-06-26T13:31:33;8.15;;;1.58;;
62861;SDS011;48953;53.110;5.592;2023-06-26T13:33:59;4.63;;;1.15;;
62861;SDS011;48953;53.110;5.592;2023-06-26T13:36:25;6.32;;;1.48;;
62861;SDS011;48953;53.110;5.592;2023-06-26T13:38:51;6.55;;;1.50;;
62861;SDS011;48953;53.110;5.592;2023-06-26T13:41:23;7.30;;;1.48;;
62861;SDS011;48953;53.110;5.592;2023-06-26T13:43:49;7.88;;;1.88;;
62861;SDS011;48953;53.110;5.592;2023-06-26T13:46:16;3.65;;;1.40;;
62861;SDS011;48953;53.110;5.592;2023-06-26T13:48:42;6.68;;;1.55;;
62861;SDS011;48953;53.110;5.592;2023-06-26T13:51:08;3.25;;;1.27;;
62861;SDS011;48953;53.110;5.592;2023-06-26T13:53:34;5.60;;;1.27;;
62861;SDS011;48953;53.110;5.592;2023-06-26T13:56:00;8.07;;;1.80;;
62861;SDS011;48953;53.110;5.592;2023-06-26T13:58:26;4.35;;;1.48;;
62861;SDS011;48953;53.110;5.592;2023-06-26T14:00:54;3.53;;;1.50;;
62861;SDS011;48953;53.110;5.592;2023-06-26T14:03:20;6.10;;;1.35;;
62861;SDS011;48953;53.110;5.592;2023-06-26T14:05:47;4.03;;;1.17;;
62861;SDS011;48953;53.110;5.592;2023-06-26T14:08:13;6.40;;;1.45;;
62861;SDS011;48953;53.110;5.592;2023-06-26T14:10:39;4.22;;;1.73;;
62861;SDS011;48953;53.110;5.592;2023-06-26T14:13:05;5.43;;;1.60;;
62861;SDS011;48953;53.110;5.592;2023-06-26T14:15:32;7.00;;;2.08;;
62861;SDS011;48953;53.110;5.592;2023-06-26T14:17:59;5.30;;;1.63;;
62861;SDS011;48953;53.110;5.592;2023-06-26T14:20:28;3.83;;;1.50;;
62861;SDS011;48953;53.110;5.592;2023-06-26T14:22:54;3.97;;;1.75;;
62861;SDS011;48953;53.110;5.592;2023-06-26T14:25:20;4.18;;;1.45;;
62861;SDS011;48953;53.110;5.592;2023-06-26T14:27:46;4.30;;;1.20;;
62861;SDS011;48953;53.110;5.592;2023-06-26T14:30:12;3.08;;;1.25;;
62861;SDS011;48953;53.110;5.592;2023-06-26T14:32:38;5.80;;;1.60;;
62861;SDS011;48953;53.110;5.592;2023-06-26T14:35:04;6.00;;;1.58;;
62861;SDS011;48953;53.110;5.592;2023-06-26T14:37:30;5.22;;;1.27;;
62861;SDS011;48953;53.110;5.592;2023-06-26T14:39:57;2.35;;;1.20;;
62861;SDS011;48953;53.110;5.592;2023-06-26T14:42:26;5.43;;;1.25;;
62861;SDS011;48953;53.110;5.592;2023-06-26T14:44:52;3.70;;;1.10;;
62861;SDS011;48953;53.110;5.592;2023-06-26T14:47:18;4.40;;;1.45;;